EGNR/CEG METAR and TAF weather

Enter ICAO airport designator
Station Type Date Time Source
EGNR METAR 2020/09/22 18:20 UTC NOAA

EGNR 221820Z 21004KT 170V230 9999 SCT021 BKN037 16/13 Q1003


Station Type Date Time Source
EGNR Decoded METAR 2020/09/22 18:20 UTC NOAA

Hawarden, United Kingdom (EGNR) 53-10N 002-59W 0M
Sep 22, 2020 - 02:20 PM EDT / 2020.09.22 1820 UTC
Wind: from the SSW (210 degrees) at 5 MPH (4 KT) (direction variable):0
Visibility: greater than 7 mile(s):0
Sky conditions: mostly cloudy
Temperature: 60 F (16 C)
Dew Point: 55 F (13 C)
Relative Humidity: 82%
Pressure (altimeter): 29.62 in. Hg (1003 hPa)
ob: EGNR 221820Z 21004KT 170V230 9999 SCT021 BKN037 16/13 Q1003
cycle: 18

Station Type Date Time Source
EGNR TAF 2016/01/23 12:00 UTC NOAA

TAF EGNR 231059Z 2312/2319 15009KT 9999 FEW020
BECMG 2316/2319 BKN014
TEMPO 2317/2319 6000 RA BKN008

Example: see airport list